createdAt,value
2019-05-18T00:02:11.871Z,27.95
2019-05-18T00:04:40.094Z,29.48
2019-05-18T00:07:08.327Z,26.90
2019-05-18T00:09:36.557Z,28.80
2019-05-18T00:12:04.785Z,28.83
2019-05-18T00:14:32.993Z,29.03
2019-05-18T00:17:01.228Z,29.37
2019-05-18T00:19:29.459Z,28.40
2019-05-18T00:21:57.670Z,28.55
2019-05-18T00:24:25.896Z,30.30
2019-05-18T00:26:54.107Z,29.60
2019-05-18T00:29:22.390Z,30.72
2019-05-18T00:31:50.627Z,29.15
2019-05-18T00:34:18.866Z,30.05
2019-05-18T00:36:47.082Z,30.27
2019-05-18T00:39:15.297Z,30.55
2019-05-18T00:41:45.454Z,30.30
2019-05-18T00:44:13.508Z,30.85
2019-05-18T00:46:41.732Z,29.40
2019-05-18T00:49:09.946Z,31.17
2019-05-18T00:51:38.164Z,31.12
2019-05-18T00:54:06.386Z,32.05
2019-05-18T00:56:34.669Z,31.60
2019-05-18T00:59:02.897Z,31.65
2019-05-18T01:01:31.117Z,31.27
2019-05-18T01:03:59.352Z,32.23
2019-05-18T01:06:27.601Z,32.50
2019-05-18T01:08:55.812Z,31.62
2019-05-18T01:11:24.022Z,31.25
2019-05-18T01:13:52.243Z,32.13
2019-05-18T01:16:20.465Z,31.57
2019-05-18T01:18:48.679Z,32.45
2019-05-18T01:21:16.914Z,32.20
2019-05-18T01:23:45.140Z,31.07
2019-05-18T01:26:13.446Z,30.77
2019-05-18T01:28:41.680Z,31.15
2019-05-18T01:31:09.989Z,31.25
2019-05-18T01:33:38.204Z,31.00
2019-05-18T01:36:06.436Z,30.55
2019-05-18T01:38:34.661Z,30.77
2019-05-18T01:41:02.910Z,31.20
2019-05-18T01:43:31.104Z,31.30
2019-05-18T01:45:59.352Z,31.00
2019-05-18T01:48:27.561Z,30.65
2019-05-18T01:50:55.779Z,30.30
2019-05-18T01:53:24.092Z,31.30
2019-05-18T01:55:52.315Z,31.93
2019-05-18T01:58:20.526Z,31.45
2019-05-18T02:00:48.760Z,30.50
2019-05-18T02:03:17.002Z,32.28
2019-05-18T02:05:45.236Z,31.02
2019-05-18T02:08:13.448Z,32.30
2019-05-18T02:10:41.665Z,30.85
2019-05-18T02:13:09.917Z,31.82
2019-05-18T02:15:38.181Z,30.30
2019-05-18T02:18:06.378Z,29.52
2019-05-18T02:20:34.601Z,31.10
2019-05-18T02:23:02.839Z,30.92
2019-05-18T02:25:31.062Z,30.62
2019-05-18T02:27:59.277Z,30.77
2019-05-18T02:30:27.501Z,31.45
2019-05-18T02:32:55.709Z,30.35
2019-05-18T02:35:23.923Z,30.37
2019-05-18T02:37:52.147Z,29.65
2019-05-18T02:40:20.373Z,30.72
2019-05-18T02:42:48.582Z,30.35
2019-05-18T02:45:16.797Z,29.57
2019-05-18T02:47:45.030Z,31.05
2019-05-18T02:50:13.362Z,29.40
2019-05-18T02:52:41.597Z,29.30
2019-05-18T02:55:10.496Z,30.70
2019-05-18T02:57:38.702Z,29.82
2019-05-18T03:00:10.096Z,31.02
2019-05-18T03:02:38.317Z,31.67
2019-05-18T03:05:06.920Z,30.95
2019-05-18T03:07:35.132Z,32.17
2019-05-18T03:10:04.642Z,31.60
2019-05-18T03:12:32.881Z,32.45
2019-05-18T03:15:01.089Z,32.73
2019-05-18T03:17:29.306Z,32.07
2019-05-18T03:19:57.542Z,33.02
2019-05-18T03:22:25.795Z,32.28
2019-05-18T03:24:54.023Z,32.73
2019-05-18T03:27:22.230Z,31.60
2019-05-18T03:29:50.560Z,31.37
2019-05-18T03:32:19.388Z,31.54
2019-05-18T03:34:47.618Z,31.68
2019-05-18T03:37:15.856Z,31.77
2019-05-18T03:39:44.104Z,32.75
2019-05-18T03:42:12.326Z,29.72
2019-05-18T03:44:40.537Z,31.65
2019-05-18T03:47:08.760Z,31.87
2019-05-18T03:49:37.003Z,30.80
2019-05-18T03:52:05.227Z,32.33
2019-05-18T03:54:33.426Z,30.97
2019-05-18T03:57:01.653Z,30.48
2019-05-18T03:59:29.879Z,30.30
2019-05-18T04:01:58.117Z,29.65
2019-05-18T04:04:26.350Z,30.90
2019-05-18T04:06:54.565Z,32.05
2019-05-18T04:09:22.787Z,30.45
2019-05-18T04:11:51.100Z,28.87
2019-05-18T04:14:20.066Z,31.26
2019-05-18T04:16:48.308Z,30.50
2019-05-18T04:19:16.564Z,29.05
2019-05-18T04:21:44.777Z,30.08
2019-05-18T04:24:13.000Z,29.25
2019-05-18T04:26:41.260Z,29.30
2019-05-18T04:29:09.448Z,28.05
2019-05-18T04:31:37.709Z,29.75
2019-05-18T04:34:06.033Z,28.95
2019-05-18T04:36:34.258Z,30.02
2019-05-18T04:39:02.534Z,28.47
2019-05-18T04:41:30.711Z,29.50
2019-05-18T04:43:58.940Z,28.52
2019-05-18T04:46:27.275Z,27.75
2019-05-18T04:48:55.457Z,28.55
2019-05-18T04:51:23.697Z,27.77
2019-05-18T04:53:51.914Z,27.15
2019-05-18T04:56:20.150Z,27.37
2019-05-18T04:58:48.355Z,28.77
2019-05-18T05:01:16.571Z,27.30
2019-05-18T05:03:44.886Z,28.47
2019-05-18T05:06:13.175Z,27.80
2019-05-18T05:08:41.395Z,27.90
2019-05-18T05:11:09.625Z,26.80
2019-05-18T05:13:37.865Z,27.10
2019-05-18T05:16:06.080Z,25.27
2019-05-18T05:18:34.309Z,26.25
2019-05-18T05:21:02.539Z,25.40
2019-05-18T05:23:30.770Z,24.83
2019-05-18T05:25:58.999Z,24.02
2019-05-18T05:28:27.199Z,25.72
2019-05-18T05:30:55.426Z,23.65
2019-05-18T05:33:23.639Z,25.50
2019-05-18T05:35:51.865Z,24.32
2019-05-18T05:38:20.122Z,24.25
2019-05-18T05:40:48.312Z,24.00
2019-05-18T05:43:16.555Z,23.83
2019-05-18T05:45:44.806Z,23.18
2019-05-18T05:48:13.040Z,23.92
2019-05-18T05:50:41.254Z,21.07
2019-05-18T05:53:09.486Z,23.07
2019-05-18T05:55:37.747Z,22.65
2019-05-18T05:58:05.917Z,22.75
2019-05-18T06:00:34.137Z,21.00
2019-05-18T06:03:02.367Z,22.07
2019-05-18T06:05:30.587Z,22.67
2019-05-18T06:07:58.797Z,22.80
2019-05-18T06:10:27.074Z,22.60
2019-05-18T06:12:55.330Z,21.77
2019-05-18T06:15:23.486Z,22.42
2019-05-18T06:17:51.724Z,22.05
2019-05-18T06:20:19.932Z,21.82
2019-05-18T06:22:48.147Z,21.80
2019-05-18T06:25:16.425Z,22.40
2019-05-18T06:27:44.599Z,22.22
2019-05-18T06:30:12.809Z,21.17
2019-05-18T06:32:41.037Z,20.88
2019-05-18T06:35:09.292Z,21.62
2019-05-18T06:37:37.504Z,21.02
2019-05-18T06:40:07.568Z,20.82
2019-05-18T06:42:35.862Z,21.23
2019-05-18T06:45:06.329Z,21.30
2019-05-18T06:47:34.548Z,21.47
2019-05-18T06:50:03.282Z,20.68
2019-05-18T06:52:31.498Z,22.60
2019-05-18T06:54:59.708Z,21.17
2019-05-18T06:57:27.943Z,21.55
2019-05-18T06:59:56.188Z,21.35
2019-05-18T07:02:24.423Z,21.00
2019-05-18T07:04:52.631Z,21.05
2019-05-18T07:07:20.870Z,20.82
2019-05-18T07:09:49.095Z,20.92
2019-05-18T07:12:17.344Z,20.35
2019-05-18T07:14:45.589Z,21.45
2019-05-18T07:17:13.791Z,20.12
2019-05-18T07:19:42.055Z,20.68
2019-05-18T07:22:10.278Z,20.08
2019-05-18T07:24:38.519Z,20.40
2019-05-18T07:27:06.803Z,19.55
2019-05-18T07:29:35.070Z,20.33
2019-05-18T07:32:03.269Z,19.52
2019-05-18T07:34:31.485Z,18.17
2019-05-18T07:36:59.706Z,19.07
2019-05-18T07:39:27.997Z,19.12
2019-05-18T07:41:56.219Z,19.75
2019-05-18T07:44:24.442Z,18.23
2019-05-18T07:46:52.738Z,18.73
2019-05-18T07:49:20.947Z,18.45
2019-05-18T07:51:49.176Z,18.62
2019-05-18T07:54:17.396Z,17.90
2019-05-18T07:56:45.627Z,16.87
2019-05-18T07:59:13.882Z,17.30
2019-05-18T08:01:42.118Z,17.70
2019-05-18T08:04:10.336Z,17.90
2019-05-18T08:06:38.627Z,15.85
2019-05-18T08:09:07.901Z,16.42
2019-05-18T08:11:36.204Z,17.43
2019-05-18T08:14:04.417Z,15.23
2019-05-18T08:16:32.644Z,15.25
2019-05-18T08:19:00.863Z,15.72
2019-05-18T08:21:29.109Z,15.58
2019-05-18T08:23:57.318Z,15.80
2019-05-18T08:26:25.587Z,15.53
2019-05-18T08:28:53.805Z,13.22
2019-05-18T08:31:22.027Z,12.35
2019-05-18T08:33:50.253Z,12.25
2019-05-18T08:36:18.550Z,12.53
2019-05-18T08:38:46.755Z,12.93
2019-05-18T08:41:14.979Z,11.30
2019-05-18T08:43:43.218Z,11.53
2019-05-18T08:46:11.433Z,12.05
2019-05-18T08:48:39.751Z,11.60
2019-05-18T08:51:07.987Z,11.03
2019-05-18T08:53:36.204Z,11.83
2019-05-18T08:56:04.422Z,11.73
2019-05-18T08:58:32.659Z,11.80
2019-05-18T09:01:00.873Z,11.22
2019-05-18T09:03:29.106Z,12.80
2019-05-18T09:05:57.343Z,12.23
2019-05-18T09:08:25.543Z,12.03
2019-05-18T09:10:53.780Z,11.08
2019-05-18T09:13:22.031Z,11.10
2019-05-18T09:15:50.499Z,11.05
2019-05-18T09:18:18.785Z,9.48
2019-05-18T09:20:47.116Z,9.15
2019-05-18T09:23:15.331Z,9.60
2019-05-18T09:25:43.545Z,10.50
2019-05-18T09:28:11.775Z,10.30
2019-05-18T09:30:41.380Z,10.08
2019-05-18T09:33:09.693Z,9.63
2019-05-18T09:35:37.909Z,10.23
2019-05-18T09:38:06.124Z,9.18
2019-05-18T09:40:34.343Z,8.43
2019-05-18T09:43:02.613Z,8.23
2019-05-18T09:45:30.828Z,7.20
2019-05-18T09:47:59.043Z,7.47
2019-05-18T09:50:27.358Z,8.10
2019-05-18T09:52:55.567Z,9.58
2019-05-18T09:55:23.780Z,8.10
2019-05-18T09:57:52.008Z,8.23
2019-05-18T10:00:21.872Z,7.95
2019-05-18T10:02:51.767Z,8.10
2019-05-18T10:05:20.304Z,7.97
2019-05-18T10:07:48.716Z,8.48
2019-05-18T10:10:16.915Z,8.75
2019-05-18T10:12:45.152Z,8.50
2019-05-18T10:15:13.890Z,8.68
2019-05-18T10:17:42.115Z,8.60
2019-05-18T10:20:10.332Z,8.90
2019-05-18T10:22:53.101Z,9.70
2019-05-18T10:25:08.533Z,8.98
2019-05-18T10:27:36.736Z,8.73
2019-05-18T10:30:07.001Z,9.05
2019-05-18T10:32:35.181Z,8.70
2019-05-18T10:35:05.759Z,9.05
2019-05-18T10:37:34.086Z,8.45
2019-05-18T10:40:02.785Z,8.50
2019-05-18T10:42:31.070Z,9.20
2019-05-18T10:44:59.332Z,8.75
2019-05-18T10:47:27.555Z,9.17
2019-05-18T10:49:55.770Z,9.15
2019-05-18T10:52:24.018Z,8.93
2019-05-18T10:54:52.224Z,8.80
2019-05-18T10:57:20.421Z,8.73
2019-05-18T10:59:48.736Z,8.73
2019-05-18T11:02:16.965Z,8.80
2019-05-18T11:04:45.190Z,8.98
2019-05-18T11:07:13.415Z,9.48
2019-05-18T11:09:41.821Z,9.63
2019-05-18T11:12:10.024Z,9.50
2019-05-18T11:14:38.261Z,10.00
2019-05-18T11:17:06.449Z,9.80
2019-05-18T11:19:34.673Z,10.10
2019-05-18T11:22:02.886Z,9.20
2019-05-18T11:24:31.120Z,9.13
2019-05-18T11:26:59.331Z,8.25
2019-05-18T11:29:27.599Z,8.53
2019-05-18T11:31:55.872Z,8.75
2019-05-18T11:34:24.126Z,8.13
2019-05-18T11:36:52.365Z,8.65
2019-05-18T11:39:20.584Z,8.75
2019-05-18T11:41:48.790Z,8.30
2019-05-18T11:44:17.050Z,7.53
2019-05-18T11:46:45.253Z,7.78
2019-05-18T11:49:13.510Z,7.65
2019-05-18T11:51:41.750Z,8.63
2019-05-18T11:54:09.964Z,8.18
2019-05-18T11:56:38.187Z,8.80
2019-05-18T11:59:06.436Z,8.33
2019-05-18T12:01:34.647Z,8.45
2019-05-18T12:04:02.862Z,8.28
2019-05-18T12:06:31.107Z,7.72
2019-05-18T12:08:59.327Z,8.25
2019-05-18T12:11:27.599Z,8.33
2019-05-18T12:13:55.756Z,8.08
2019-05-18T12:16:24.001Z,7.03
2019-05-18T12:18:52.237Z,7.30
2019-05-18T12:21:20.446Z,8.20
2019-05-18T12:23:48.654Z,7.53
2019-05-18T12:26:16.871Z,8.60
2019-05-18T12:28:45.352Z,8.70
2019-05-18T12:31:13.568Z,8.40
2019-05-18T12:33:41.793Z,8.53
2019-05-18T12:36:10.056Z,9.63
2019-05-18T12:38:38.285Z,8.20
2019-05-18T12:41:06.566Z,7.97
2019-05-18T12:43:34.780Z,7.87
2019-05-18T12:46:03.021Z,7.75
2019-05-18T12:48:31.229Z,7.42
2019-05-18T12:50:59.446Z,6.78
2019-05-18T12:53:27.707Z,6.30
2019-05-18T12:55:55.914Z,6.85
2019-05-18T12:58:24.136Z,6.97
2019-05-18T13:00:52.434Z,6.40
2019-05-18T13:03:20.669Z,6.12
2019-05-18T13:05:48.877Z,5.97
2019-05-18T13:08:17.099Z,5.72
2019-05-18T13:10:45.323Z,5.37
2019-05-18T13:13:13.617Z,5.80
2019-05-18T13:15:41.813Z,5.30
2019-05-18T13:18:10.015Z,5.53
2019-05-18T13:20:38.291Z,5.33
2019-05-18T13:23:06.496Z,5.37
2019-05-18T13:25:34.709Z,5.05
2019-05-18T13:28:02.945Z,4.90
2019-05-18T13:30:31.150Z,5.08
2019-05-18T13:32:59.364Z,5.30
2019-05-18T13:35:28.390Z,4.92
2019-05-18T13:37:56.603Z,3.98
2019-05-18T13:40:24.820Z,3.65
2019-05-18T13:42:53.053Z,3.70
2019-05-18T13:45:21.332Z,4.10
2019-05-18T13:47:49.565Z,3.67
2019-05-18T13:50:17.921Z,4.60
2019-05-18T13:52:46.153Z,4.45
2019-05-18T13:55:14.379Z,4.62
2019-05-18T13:57:42.619Z,4.17
2019-05-18T14:00:10.849Z,4.75
2019-05-18T14:02:39.107Z,5.20
2019-05-18T14:05:08.341Z,4.10
2019-05-18T14:07:36.578Z,4.17
2019-05-18T14:10:07.686Z,4.20
2019-05-18T14:12:35.886Z,4.17
2019-05-18T14:15:05.750Z,4.08
2019-05-18T14:17:34.017Z,4.60
2019-05-18T14:20:02.245Z,5.80
2019-05-18T14:22:30.431Z,4.35
2019-05-18T14:24:58.647Z,4.28
2019-05-18T14:27:26.869Z,3.85
2019-05-18T14:29:55.092Z,3.92
2019-05-18T14:32:23.350Z,4.15
2019-05-18T14:34:51.563Z,3.87
2019-05-18T14:37:19.772Z,3.70
2019-05-18T14:39:47.992Z,3.90
2019-05-18T14:42:16.196Z,3.90
2019-05-18T14:44:44.412Z,3.92
2019-05-18T14:47:12.613Z,4.08
2019-05-18T14:49:40.831Z,4.35
2019-05-18T14:52:11.971Z,4.00
2019-05-18T14:54:38.980Z,3.95
2019-05-18T14:57:07.258Z,3.83
2019-05-18T14:59:35.489Z,3.97
2019-05-18T15:02:03.735Z,3.87
2019-05-18T15:04:32.000Z,4.00
2019-05-18T15:07:00.215Z,4.30
2019-05-18T15:09:28.453Z,3.92
2019-05-18T15:11:56.653Z,4.60
2019-05-18T15:14:24.863Z,3.90
2019-05-18T15:16:53.306Z,4.17
2019-05-18T15:19:21.593Z,4.60
2019-05-18T15:21:49.790Z,4.17
2019-05-18T15:24:18.011Z,4.00
2019-05-18T15:26:46.259Z,4.17
2019-05-18T15:29:14.469Z,3.95
2019-05-18T15:31:42.887Z,4.20
2019-05-18T15:34:11.107Z,3.60
2019-05-18T15:36:39.311Z,4.00
2019-05-18T15:39:07.583Z,3.80
2019-05-18T15:41:35.793Z,4.20
2019-05-18T15:44:04.014Z,4.00
2019-05-18T15:46:32.218Z,4.35
2019-05-18T15:49:00.606Z,4.80
2019-05-18T15:51:28.879Z,4.17
2019-05-18T15:53:57.117Z,4.10
2019-05-18T15:56:25.321Z,8.65
2019-05-18T15:58:53.526Z,10.32
2019-05-18T16:01:21.753Z,9.63
2019-05-18T16:03:49.961Z,10.72
2019-05-18T16:06:18.214Z,11.60
2019-05-18T16:08:46.427Z,12.33
2019-05-18T16:11:14.657Z,11.63
2019-05-18T16:13:42.906Z,11.03
2019-05-18T16:16:11.137Z,10.32
2019-05-18T16:18:39.343Z,10.98
2019-05-18T16:21:07.561Z,10.72
2019-05-18T16:23:35.770Z,10.53
2019-05-18T16:26:04.002Z,10.80
2019-05-18T16:28:32.243Z,11.00
2019-05-18T16:31:00.575Z,10.48
2019-05-18T16:33:28.787Z,10.93
2019-05-18T16:35:57.007Z,10.98
2019-05-18T16:38:25.257Z,10.65
2019-05-18T16:40:53.484Z,10.63
2019-05-18T16:43:21.699Z,9.88
2019-05-18T16:45:49.932Z,11.10
2019-05-18T16:48:18.157Z,10.93
2019-05-18T16:50:46.652Z,10.88
2019-05-18T16:53:15.589Z,10.40
2019-05-18T16:55:43.905Z,10.35
2019-05-18T16:58:12.119Z,10.80
2019-05-18T17:00:40.338Z,10.70
2019-05-18T17:03:08.567Z,11.73
2019-05-18T17:05:36.992Z,11.93
2019-05-18T17:08:05.727Z,11.60
2019-05-18T17:10:34.008Z,12.05
2019-05-18T17:13:02.244Z,11.85
2019-05-18T17:15:30.468Z,11.80
2019-05-18T17:17:58.844Z,11.80
2019-05-18T17:20:27.814Z,11.97
2019-05-18T17:22:56.076Z,12.75
2019-05-18T17:25:24.505Z,13.05
2019-05-18T17:27:52.705Z,13.62
2019-05-18T17:30:21.009Z,12.28
2019-05-18T17:32:49.214Z,13.40
2019-05-18T17:35:17.452Z,13.53
2019-05-18T17:37:45.680Z,13.15
2019-05-18T17:40:14.071Z,14.70
2019-05-18T17:42:42.289Z,13.78
2019-05-18T17:45:10.514Z,13.95
2019-05-18T17:47:38.784Z,13.68
2019-05-18T17:50:10.424Z,14.45
2019-05-18T17:52:38.659Z,13.67
2019-05-18T17:55:06.960Z,14.03
2019-05-18T17:57:35.177Z,15.03
2019-05-18T18:00:04.953Z,14.60
2019-05-18T18:02:33.450Z,14.87
2019-05-18T18:05:01.678Z,14.73
2019-05-18T18:07:29.933Z,14.07
2019-05-18T18:09:58.161Z,14.05
2019-05-18T18:12:26.364Z,14.45
2019-05-18T18:14:54.585Z,13.90
2019-05-18T18:17:22.832Z,14.03
2019-05-18T18:19:51.104Z,14.25
2019-05-18T18:22:19.278Z,14.55
2019-05-18T18:24:47.663Z,14.85
2019-05-18T18:27:24.739Z,15.63
2019-05-18T18:29:45.873Z,16.15
2019-05-18T18:32:14.289Z,16.10
2019-05-18T18:34:42.501Z,16.93
2019-05-18T18:37:10.802Z,18.45
2019-05-18T18:39:39.043Z,18.42
2019-05-18T18:42:07.353Z,17.60
2019-05-18T18:44:35.625Z,18.93
2019-05-18T18:47:03.851Z,18.07
2019-05-18T18:49:32.188Z,18.85
2019-05-18T18:52:00.433Z,19.45
2019-05-18T18:54:28.621Z,18.80
2019-05-18T18:56:56.910Z,19.57
2019-05-18T18:59:25.193Z,19.03
2019-05-18T19:01:53.411Z,18.82
2019-05-18T19:04:21.648Z,18.77
2019-05-18T19:06:49.871Z,19.82
2019-05-18T19:09:18.088Z,19.57
2019-05-18T19:11:46.358Z,20.52
2019-05-18T19:14:14.590Z,20.43
2019-05-18T19:16:42.801Z,20.25
2019-05-18T19:19:11.018Z,20.62
2019-05-18T19:21:39.257Z,19.77
2019-05-18T19:24:07.483Z,20.83
2019-05-18T19:26:35.824Z,21.10
2019-05-18T19:29:04.030Z,21.52
2019-05-18T19:31:32.341Z,20.75
2019-05-18T19:34:00.567Z,21.67
2019-05-18T19:36:28.799Z,21.52
2019-05-18T19:38:57.037Z,21.25
2019-05-18T19:41:25.928Z,21.65
2019-05-18T19:43:54.754Z,21.95
2019-05-18T19:46:22.961Z,21.12
2019-05-18T19:48:51.188Z,21.57
2019-05-18T19:51:19.582Z,21.97
2019-05-18T19:53:47.847Z,22.45
2019-05-18T19:56:16.063Z,22.80
2019-05-18T19:58:44.324Z,21.07
2019-05-18T20:01:12.891Z,21.70
2019-05-18T20:03:41.066Z,21.82
2019-05-18T20:06:09.334Z,22.98
2019-05-18T20:08:37.568Z,22.00
2019-05-18T20:11:06.225Z,21.95
2019-05-18T20:13:34.466Z,23.45
2019-05-18T20:16:02.957Z,23.07
2019-05-18T20:18:31.260Z,22.45
2019-05-18T20:20:59.512Z,22.70
2019-05-18T20:23:27.739Z,22.60
2019-05-18T20:25:55.954Z,22.40
2019-05-18T20:28:24.459Z,22.62
2019-05-18T20:30:52.711Z,22.82
2019-05-18T20:33:20.984Z,23.50
2019-05-18T20:35:49.183Z,22.52
2019-05-18T20:38:17.401Z,23.50
2019-05-18T20:40:45.673Z,23.02
2019-05-18T20:43:14.008Z,23.27
2019-05-18T20:45:42.274Z,21.17
2019-05-18T20:48:10.519Z,23.30
2019-05-18T20:50:38.740Z,23.38
2019-05-18T20:53:06.986Z,23.38
2019-05-18T20:55:35.207Z,24.50
2019-05-18T20:58:03.455Z,23.50
2019-05-18T21:00:31.651Z,24.80
2019-05-18T21:02:59.906Z,24.55
2019-05-18T21:05:28.113Z,23.53
2019-05-18T21:07:56.340Z,24.92
2019-05-18T21:10:24.582Z,24.15
2019-05-18T21:12:52.876Z,24.57
2019-05-18T21:15:21.043Z,25.25
2019-05-18T21:17:49.278Z,26.33
2019-05-18T21:20:17.512Z,26.52
2019-05-18T21:22:45.776Z,24.80
2019-05-18T21:25:14.064Z,25.77
2019-05-18T21:27:42.322Z,25.30
2019-05-18T21:30:10.562Z,27.15
2019-05-18T21:32:38.793Z,26.33
2019-05-18T21:35:07.416Z,26.57
2019-05-18T21:37:35.591Z,25.45
2019-05-18T21:40:05.466Z,25.80
2019-05-18T21:42:33.670Z,25.27
2019-05-18T21:45:02.247Z,26.85
2019-05-18T21:47:30.643Z,25.57
2019-05-18T21:49:59.048Z,26.97
2019-05-18T21:52:27.265Z,27.13
2019-05-18T21:54:55.522Z,26.45
2019-05-18T21:57:23.880Z,27.25
2019-05-18T21:59:52.211Z,27.67
2019-05-18T22:02:20.430Z,28.07
2019-05-18T22:04:48.666Z,27.73
2019-05-18T22:07:16.901Z,27.80
2019-05-18T22:09:45.118Z,28.38
2019-05-18T22:12:13.556Z,27.87
2019-05-18T22:14:41.785Z,27.58
2019-05-18T22:17:09.988Z,27.95
2019-05-18T22:19:38.201Z,27.32
2019-05-18T22:22:06.441Z,27.90
2019-05-18T22:24:34.851Z,27.95
2019-05-18T22:27:03.073Z,29.00
2019-05-18T22:29:31.302Z,27.25
2019-05-18T22:31:59.558Z,28.65
2019-05-18T22:34:27.768Z,28.62
2019-05-18T22:36:56.020Z,28.62
2019-05-18T22:39:26.661Z,29.07
2019-05-18T22:41:54.149Z,28.55
2019-05-18T22:44:22.384Z,28.67
2019-05-18T22:46:50.681Z,29.63
2019-05-18T22:49:18.904Z,28.55
2019-05-18T22:51:47.124Z,31.75
2019-05-18T22:54:15.344Z,29.32
2019-05-18T22:56:43.583Z,30.12
2019-05-18T22:59:11.842Z,29.15
2019-05-18T23:01:40.069Z,29.27
2019-05-18T23:04:08.291Z,30.77
2019-05-18T23:06:36.542Z,30.57
2019-05-18T23:09:06.005Z,31.42
2019-05-18T23:11:34.202Z,31.03
2019-05-18T23:14:02.437Z,32.25
2019-05-18T23:16:30.638Z,31.85
2019-05-18T23:18:58.850Z,31.57
2019-05-18T23:21:34.495Z,32.15
2019-05-18T23:24:02.817Z,32.50
2019-05-18T23:26:31.237Z,33.50
2019-05-18T23:28:59.542Z,33.28
2019-05-18T23:31:27.764Z,34.33
2019-05-18T23:33:55.993Z,34.48
2019-05-18T23:36:24.226Z,32.83
2019-05-18T23:38:52.582Z,34.15
2019-05-18T23:41:20.795Z,34.75
2019-05-18T23:43:48.980Z,35.50
2019-05-18T23:46:17.291Z,33.92
2019-05-18T23:48:45.489Z,34.95
2019-05-18T23:51:13.725Z,35.45
2019-05-18T23:53:42.051Z,33.73
2019-05-18T23:56:10.264Z,36.75
2019-05-18T23:58:38.489Z,35.23
